Time;durP1;ratioP1;P1;durP2;ratioP2;P2;SDS_P1;SDS_P2;PMS_P1;PMS_P2;Temp;Humidity;BMP_temperature;BMP_pressure;BME280_temperature;BME280_humidity;BME280_pressure;Samples;Min_cycle;Max_cycle;Signal;HPM_P1;HPM_P2
2022/07/12 00:00:45;;;;;;;5.40;3.35;;;;;;;18.43;100.00;96980.66;5084674;28;20074;-47
2022/07/12 00:03:15;;;;;;;5.53;3.05;;;;;;;18.18;100.00;96980.03;5076798;28;20072;-48
2022/07/12 00:05:43;;;;;;;6.15;3.25;;;;;;;18.55;100.00;96970.38;5083933;28;20071;-50
2022/07/12 00:08:12;;;;;;;4.80;3.30;;;;;;;18.54;100.00;96968.69;5083111;28;20772;-47
2022/07/12 00:10:40;;;;;;;5.72;3.80;;;;;;;18.61;100.00;96974.13;5081201;28;20091;-44
2022/07/12 00:13:10;;;;;;;4.22;2.97;;;;;;;18.80;100.00;96972.81;5080092;28;20080;-48
2022/07/12 00:15:39;;;;;;;5.53;3.20;;;;;;;18.84;100.00;96964.25;5082603;28;20435;-45
2022/07/12 00:18:07;;;;;;;4.07;3.58;;;;;;;18.89;100.00;96961.84;5082153;28;20545;-45
2022/07/12 00:20:37;;;;;;;3.85;3.38;;;;;;;18.88;100.00;96964.69;5083620;28;20090;-48
2022/07/12 00:23:05;;;;;;;4.00;3.60;;;;;;;18.84;100.00;96968.75;5084510;28;20079;-51
2022/07/12 00:25:34;;;;;;;4.63;3.67;;;;;;;18.89;100.00;96963.69;5086491;28;20120;-51
2022/07/12 00:28:02;;;;;;;5.60;3.63;;;;;;;18.91;100.00;96967.84;5081181;28;20086;-48
2022/07/12 00:30:30;;;;;;;5.43;4.43;;;;;;;18.80;100.00;96967.47;5080352;28;20091;-45
2022/07/12 00:32:59;;;;;;;9.20;3.95;;;;;;;18.81;100.00;96964.59;5083869;28;20093;-51
2022/07/12 00:35:27;;;;;;;6.82;3.72;;;;;;;18.84;100.00;96971.44;5081750;28;20083;-50
2022/07/12 00:37:57;;;;;;;4.22;3.83;;;;;;;18.83;100.00;96967.09;5085249;28;20040;-48
2022/07/12 00:40:26;;;;;;;6.05;3.97;;;;;;;18.74;100.00;96967.19;5080797;28;20478;-47
2022/07/12 00:42:54;;;;;;;5.60;3.90;;;;;;;18.57;100.00;96972.84;5083881;28;20529;-46
2022/07/12 00:45:23;;;;;;;3.88;3.25;;;;;;;18.56;100.00;96974.69;5080800;28;20083;-47
2022/07/12 00:47:52;;;;;;;4.25;3.78;;;;;;;18.44;100.00;96974.31;5077503;28;20098;-44
2022/07/12 00:50:22;;;;;;;5.00;3.38;;;;;;;18.59;100.00;96971.66;5084893;28;20060;-51
2022/07/12 00:52:52;;;;;;;5.18;3.10;;;;;;;18.57;100.00;96965.66;5079642;28;20534;-58
2022/07/12 00:55:24;;;;;;;4.05;3.53;;;;;;;18.59;100.00;96970.84;5083638;28;20076;-44
2022/07/12 00:57:53;;;;;;;5.47;3.45;;;;;;;18.63;100.00;96972.13;5080159;28;20469;-47
2022/07/12 01:00:23;;;;;;;5.03;3.53;;;;;;;18.61;100.00;96969.63;5081319;28;20068;-45
2022/07/12 01:02:52;;;;;;;4.15;3.40;;;;;;;18.61;100.00;96963.44;5080445;28;20068;-50
2022/07/12 01:05:21;;;;;;;4.20;3.80;;;;;;;18.65;100.00;96970.94;5080669;28;20067;-46
2022/07/12 01:07:50;;;;;;;7.28;3.67;;;;;;;18.66;100.00;96972.59;5081247;28;20075;-48
2022/07/12 01:10:19;;;;;;;8.75;3.65;;;;;;;18.71;100.00;96964.88;5084679;28;20553;-49
2022/07/12 01:12:49;;;;;;;5.72;3.95;;;;;;;18.73;100.00;96965.53;5084069;28;20075;-52
2022/07/12 01:15:19;;;;;;;4.88;3.78;;;;;;;18.73;100.00;96970.06;5079848;28;20091;-45
2022/07/12 01:17:47;;;;;;;7.00;3.78;;;;;;;18.71;100.00;96969.34;5078743;28;20080;-50
2022/07/12 01:20:20;;;;;;;5.22;4.22;;;;;;;18.58;100.00;96963.81;5083811;28;20063;-50
2022/07/12 01:22:53;;;;;;;5.53;4.50;;;;;;;18.60;100.00;96969.81;5081184;28;20075;-50
2022/07/12 01:25:23;;;;;;;5.30;3.50;;;;;;;18.53;100.00;96961.69;5100650;28;20064;-45
2022/07/12 01:27:52;;;;;;;7.50;4.07;;;;;;;18.42;100.00;96972.84;5081965;28;20064;-53
2022/07/12 01:30:20;;;;;;;5.80;3.88;;;;;;;18.15;100.00;96975.06;5078055;28;20084;-49
2022/07/12 01:32:49;;;;;;;5.38;4.82;;;;;;;18.15;100.00;96977.72;5078205;28;20514;-44
2022/07/12 01:35:19;;;;;;;8.15;5.00;;;;;;;18.33;100.00;96979.25;5076477;28;20083;-53
2022/07/12 01:37:47;;;;;;;7.65;5.43;;;;;;;17.98;100.00;96973.53;5070907;28;20970;-60
2022/07/12 01:40:17;;;;;;;5.50;4.70;;;;;;;18.00;100.00;96968.84;5073489;28;20060;-48
2022/07/12 01:42:46;;;;;;;4.47;4.00;;;;;;;18.07;100.00;96968.97;5080767;28;20055;-51
2022/07/12 01:45:14;;;;;;;6.60;4.45;;;;;;;18.07;100.00;96967.13;5088484;28;20067;-47
2022/07/12 01:47:42;;;;;;;8.40;4.55;;;;;;;17.73;100.00;96972.84;5088725;28;20082;-54
2022/07/12 01:50:11;;;;;;;4.45;4.05;;;;;;;17.93;100.00;96962.56;5083490;28;20075;-53
2022/07/12 01:52:41;;;;;;;6.65;4.50;;;;;;;17.79;100.00;96969.50;5082220;28;20102;-49
2022/07/12 01:55:10;;;;;;;4.72;4.20;;;;;;;17.74;100.00;96964.66;5084789;28;20495;-53
2022/07/12 01:57:42;;;;;;;7.82;4.57;;;;;;;17.81;100.00;96980.00;5081094;28;20083;-48
2022/07/12 02:00:12;;;;;;;6.80;5.00;;;;;;;17.63;100.00;96975.75;5084317;28;20075;-52
2022/07/12 02:02:41;;;;;;;6.32;4.57;;;;;;;17.44;100.00;96977.00;5084437;28;20072;-48
2022/07/12 02:05:09;;;;;;;7.60;4.22;;;;;;;17.29;100.00;96976.91;5075022;28;20080;-55
2022/07/12 02:07:38;;;;;;;8.88;4.32;;;;;;;17.21;100.00;96979.63;5081831;28;20092;-54
2022/07/12 02:10:08;;;;;;;5.78;4.50;;;;;;;17.07;100.00;96981.19;5080371;28;20091;-49
2022/07/12 02:12:37;;;;;;;9.02;4.50;;;;;;;17.25;100.00;96972.94;5081690;28;20086;-46
2022/07/12 02:15:08;;;;;;;6.45;4.60;;;;;;;17.02;100.00;96967.53;5075738;28;20048;-52
2022/07/12 02:17:37;;;;;;;7.57;4.60;;;;;;;16.91;100.00;96975.09;5080083;28;20088;-51
2022/07/12 02:20:07;;;;;;;7.72;4.60;;;;;;;16.85;100.00;96984.56;5079956;28;20083;-44
2022/07/12 02:22:35;;;;;;;7.67;4.80;;;;;;;16.85;100.00;96982.72;5107866;27;20517;-47
2022/07/12 02:25:05;;;;;;;7.05;4.30;;;;;;;16.52;100.00;96987.28;5082675;28;20079;-48
2022/07/12 02:27:33;;;;;;;4.70;3.75;;;;;;;16.45;100.00;96982.78;5083367;28;20095;-53
2022/07/12 02:30:02;;;;;;;5.93;4.75;;;;;;;16.49;100.00;96986.81;5081733;28;20056;-48
2022/07/12 02:32:32;;;;;;;5.85;4.00;;;;;;;16.39;100.00;96992.31;5079200;28;20550;-45
2022/07/12 02:35:00;;;;;;;6.73;4.73;;;;;;;16.32;100.00;96994.78;5080445;28;20072;-47
2022/07/12 02:37:28;;;;;;;5.63;4.43;;;;;;;16.42;100.00;96988.47;5078600;28;20486;-53
2022/07/12 02:40:53;;;;;;;5.72;4.97;;;;;;;16.67;100.00;96983.94;5088229;28;20068;-52
2022/07/12 02:42:45;;;;;;;6.82;4.85;;;;;;;16.69;100.00;96987.25;5093510;28;20128;-49
2022/07/12 02:45:14;;;;;;;7.20;5.03;;;;;;;16.72;100.00;96981.56;5088737;28;20084;-53
2022/07/12 02:47:43;;;;;;;6.30;5.10;;;;;;;16.56;100.00;96990.44;5086120;28;20082;-53
2022/07/12 02:50:12;;;;;;;7.78;4.93;;;;;;;16.45;100.00;96994.28;5082820;28;20080;-55
2022/07/12 02:52:40;;;;;;;8.65;5.10;;;;;;;16.51;100.00;96995.44;5084835;28;20072;-54
2022/07/12 02:55:09;;;;;;;7.03;5.30;;;;;;;16.35;100.00;96998.97;5079092;28;20080;-50
2022/07/12 02:57:37;;;;;;;8.75;5.10;;;;;;;16.10;100.00;96992.78;5079887;28;20083;-50
2022/07/12 03:00:07;;;;;;;7.45;4.90;;;;;;;16.04;100.00;96994.31;5078048;28;20072;-54
2022/07/12 03:02:36;;;;;;;9.30;5.32;;;;;;;16.15;100.00;96998.47;5078200;28;20064;-48
2022/07/12 03:05:07;;;;;;;9.23;5.80;;;;;;;16.28;100.00;96997.97;5074703;28;20167;-49
2022/07/12 03:07:36;;;;;;;8.32;5.60;;;;;;;16.44;100.00;96997.09;5080735;28;20072;-48
2022/07/12 03:10:05;;;;;;;9.43;5.57;;;;;;;16.19;100.00;96999.78;5082299;28;20518;-45
2022/07/12 03:12:33;;;;;;;9.27;5.38;;;;;;;16.33;100.00;97001.78;5076622;28;20079;-49
2022/07/12 03:15:02;;;;;;;8.73;5.90;;;;;;;16.35;100.00;97005.13;5072363;28;20071;-53
2022/07/12 03:17:30;;;;;;;7.80;5.07;;;;;;;16.32;100.00;97008.09;5079053;28;20094;-45
2022/07/12 03:19:59;;;;;;;9.02;4.60;;;;;;;16.38;100.00;96994.13;5075922;28;20456;-45
2022/07/12 03:22:29;;;;;;;8.02;5.25;;;;;;;16.43;100.00;96998.94;5079764;28;20067;-48
2022/07/12 03:24:57;;;;;;;8.93;5.10;;;;;;;16.47;100.00;97002.94;5089123;28;20040;-47
2022/07/12 03:27:26;;;;;;;9.65;5.25;;;;;;;16.25;100.00;97004.44;5089654;28;20091;-44
2022/07/12 03:29:54;;;;;;;7.95;5.07;;;;;;;16.25;100.00;97007.09;5090662;28;20080;-50
2022/07/12 03:32:22;;;;;;;8.55;5.43;;;;;;;16.34;100.00;97016.75;5092163;28;20545;-46
2022/07/12 03:34:51;;;;;;;9.98;6.30;;;;;;;16.29;100.00;97008.44;5088891;28;20079;-48
2022/07/12 03:37:19;;;;;;;7.40;5.97;;;;;;;16.40;100.00;97006.44;5092136;28;20083;-43
2022/07/12 03:39:49;;;;;;;7.47;5.15;;;;;;;16.59;100.00;97014.91;5095271;28;20091;-43
2022/07/12 03:42:17;;;;;;;8.38;5.82;;;;;;;16.54;100.00;97006.56;5083981;28;20098;-48
2022/07/12 03:44:46;;;;;;;6.45;5.75;;;;;;;16.66;100.00;97007.06;5085692;28;20090;-49
2022/07/12 03:47:14;;;;;;;9.55;5.75;;;;;;;16.74;100.00;97011.56;5083351;28;20071;-45
2022/07/12 03:49:42;;;;;;;8.10;5.70;;;;;;;16.79;100.00;97011.88;5086593;28;20084;-47
2022/07/12 03:52:11;;;;;;;8.35;5.60;;;;;;;16.84;100.00;97012.22;5081938;28;20091;-45
2022/07/12 03:54:39;;;;;;;6.63;5.53;;;;;;;16.94;100.00;97012.03;5088144;28;20090;-44
2022/07/12 03:57:15;;;;;;;7.78;5.85;;;;;;;17.15;100.00;97006.13;5081726;28;20044;-51
2022/07/12 03:59:44;;;;;;;7.40;5.97;;;;;;;17.81;100.00;97012.84;5079083;28;20558;-48
2022/07/12 04:02:13;;;;;;;7.15;4.85;;;;;;;18.06;100.00;97002.00;5079595;28;20100;-50
2022/07/12 04:04:42;;;;;;;5.80;4.72;;;;;;;19.27;100.00;96998.31;5085634;28;20068;-47
2022/07/12 04:07:10;;;;;;;6.30;4.75;;;;;;;19.44;100.00;96999.78;5084474;28;20147;-49
2022/07/12 04:09:39;;;;;;;6.10;4.75;;;;;;;20.25;100.00;96986.25;5085836;28;20071;-50
2022/07/12 04:12:09;;;;;;;4.65;3.97;;;;;;;20.71;100.00;96983.13;5082896;28;20071;-44
2022/07/12 04:14:37;;;;;;;;;;;;;;;20.86;100.00;96987.38;5084900;28;20110;-54
2022/07/12 04:17:06;;;;;;;5.80;4.05;;;;;;;20.24;100.00;96984.59;5086034;28;19955;-46
2022/07/12 04:19:34;;;;;;;4.97;3.47;;;;;;;20.28;100.00;96984.03;5084771;28;20572;-44
2022/07/12 04:22:03;;;;;;;4.32;3.80;;;;;;;20.02;100.00;96995.31;5084274;28;20080;-46
2022/07/12 04:24:32;;;;;;;5.47;4.40;;;;;;;20.46;100.00;96985.41;5085249;28;20474;-52
2022/07/12 04:27:01;;;;;;;7.03;4.25;;;;;;;21.50;100.00;96980.91;5083670;28;20075;-50
2022/07/12 04:29:30;;;;;;;5.25;4.72;;;;;;;22.03;100.00;96986.44;5087637;28;20079;-45
2022/07/12 04:31:59;;;;;;;5.50;4.40;;;;;;;21.08;100.00;96992.66;5086069;28;20067;-47
2022/07/12 04:34:27;;;;;;;5.43;4.60;;;;;;;21.30;100.00;96979.97;5080714;28;20135;-47
2022/07/12 04:36:55;;;;;;;5.72;4.57;;;;;;;22.05;100.00;96986.22;5096085;28;20282;-47
2022/07/12 04:39:24;;;;;;;4.80;4.30;;;;;;;22.58;100.00;96980.13;5080527;28;20545;-53
2022/07/12 04:41:52;;;;;;;4.95;3.70;;;;;;;23.13;100.00;96986.06;5075639;28;20087;-55
2022/07/12 04:44:21;;;;;;;6.30;4.55;;;;;;;22.50;100.00;96987.34;5079168;28;20076;-49
2022/07/12 04:46:50;;;;;;;5.50;4.30;;;;;;;22.17;100.00;96990.00;5086571;28;20079;-47
2022/07/12 04:49:19;;;;;;;6.72;3.90;;;;;;;21.75;100.00;96991.97;5084315;28;20058;-51
2022/07/12 04:51:47;;;;;;;4.90;3.47;;;;;;;22.79;100.00;96982.56;5086077;28;20068;-48
2022/07/12 04:54:16;;;;;;;3.60;3.13;;;;;;;23.78;100.00;96992.25;5084521;28;20070;-47
2022/07/12 04:56:44;;;;;;;3.92;3.50;;;;;;;24.28;100.00;96986.94;5085366;28;21398;-46
2022/07/12 04:59:13;;;;;;;4.20;3.70;;;;;;;24.75;100.00;96984.75;5085723;28;20121;-50
2022/07/12 05:01:41;;;;;;;3.47;3.17;;;;;;;24.26;100.00;96990.91;5085656;28;20455;-50
2022/07/12 05:04:12;;;;;;;3.92;3.53;;;;;;;24.14;100.00;96993.47;5080570;28;20080;-49
2022/07/12 05:06:41;;;;;;;6.05;4.18;;;;;;;24.33;100.00;97005.19;5085540;28;20044;-45
2022/07/12 05:09:09;;;;;;;4.47;4.07;;;;;;;24.66;100.00;96996.84;5085656;28;20083;-51
2022/07/12 05:11:37;;;;;;;6.22;4.07;;;;;;;24.87;100.00;96996.44;5086807;28;20088;-49
2022/07/12 05:14:06;;;;;;;6.50;3.65;;;;;;;24.72;100.00;96997.84;5090404;28;20554;-51
2022/07/12 05:16:34;;;;;;;7.30;3.92;;;;;;;23.85;100.00;97008.38;5083834;28;20186;-49
2022/07/12 05:19:02;;;;;;;6.13;3.67;;;;;;;23.76;100.00;97010.47;5085871;28;20087;-45
2022/07/12 05:21:33;;;;;;;4.10;3.70;;;;;;;23.78;100.00;97004.88;5081066;28;20099;-44
2022/07/12 05:24:03;;;;;;;4.70;3.40;;;;;;;23.96;100.00;97006.88;5084056;28;20079;-44
2022/07/12 05:26:31;;;;;;;3.70;3.40;;;;;;;24.20;100.00;97003.41;5078616;28;20084;-47
2022/07/12 05:29:00;;;;;;;4.35;3.00;;;;;;;23.66;100.00;97004.69;5077018;28;20504;-48
2022/07/12 05:31:28;;;;;;;3.60;2.92;;;;;;;23.94;100.00;97001.69;5085866;28;20531;-44
2022/07/12 05:33:56;;;;;;;3.75;2.75;;;;;;;23.55;100.00;97005.38;5084629;28;20083;-44
2022/07/12 05:36:25;;;;;;;2.88;2.47;;;;;;;23.61;100.00;97010.72;5078863;28;20585;-49
2022/07/12 05:38:55;;;;;;;3.25;2.67;;;;;;;23.85;100.00;97011.06;5086138;28;20088;-53
2022/07/12 05:41:23;;;;;;;2.53;2.20;;;;;;;23.27;100.00;97017.28;5081339;28;20581;-51
2022/07/12 05:43:51;;;;;;;2.78;2.58;;;;;;;23.50;100.00;97011.38;5085461;28;20091;-51
2022/07/12 05:46:20;;;;;;;2.75;2.50;;;;;;;23.89;100.00;97021.19;5083782;28;20095;-47
2022/07/12 05:48:49;;;;;;;2.38;2.10;;;;;;;23.30;100.00;97021.41;5086046;28;20075;-50
2022/07/12 05:54:05;;;;;;;2.00;1.80;;;;;;;23.56;100.00;97026.69;5076465;28;20079;-47
2022/07/12 05:56:33;;;;;;;2.15;1.80;;;;;;;23.86;100.00;97024.31;5083145;28;20873;-44
2022/07/12 05:59:01;;;;;;;1.73;1.48;;;;;;;23.69;100.00;97029.38;5075433;28;20072;-44
2022/07/12 06:01:30;;;;;;;1.35;1.25;;;;;;;23.43;100.00;97030.28;5076962;28;20553;-52
2022/07/12 06:04:17;;;;;;;1.20;1.10;;;;;;;22.93;100.00;97032.66;5079637;28;20126;-49
2022/07/12 06:06:45;;;;;;;3.10;1.55;;;;;;;22.80;100.00;97037.19;5081462;28;20093;-46
2022/07/12 06:09:15;;;;;;;2.70;1.67;;;;;;;23.10;100.00;97046.50;5077336;28;20076;-46
2022/07/12 06:11:43;;;;;;;3.08;1.70;;;;;;;22.60;100.00;97046.06;5082021;28;20076;-48
2022/07/12 06:14:12;;;;;;;1.60;1.50;;;;;;;22.27;100.00;97048.72;5078588;28;20074;-49
2022/07/12 06:16:40;;;;;;;2.83;1.60;;;;;;;22.33;100.00;97042.50;5078948;28;20088;-46
2022/07/12 06:19:08;;;;;;;1.98;1.55;;;;;;;22.62;100.00;97038.63;5081557;28;20474;-44
2022/07/12 06:21:37;;;;;;;3.17;1.90;;;;;;;22.61;100.00;97038.81;5081507;28;20082;-47
2022/07/12 06:24:24;;;;;;;2.78;1.40;;;;;;;23.00;100.00;97039.88;5076298;28;20075;-49
2022/07/12 06:26:52;;;;;;;2.00;1.50;;;;;;;23.11;100.00;97040.06;5078584;28;20071;-49
2022/07/12 06:29:21;;;;;;;2.53;1.33;;;;;;;22.93;100.00;97050.66;5082248;28;20079;-53
2022/07/12 06:31:49;;;;;;;1.77;1.40;;;;;;;22.81;100.00;97042.34;5078802;28;20080;-46
2022/07/12 06:34:17;;;;;;;2.05;1.30;;;;;;;22.89;100.00;97052.91;5078559;28;20079;-50
2022/07/12 06:36:46;;;;;;;2.28;1.30;;;;;;;22.94;100.00;97047.75;5079558;28;20476;-46
2022/07/12 06:39:14;;;;;;;1.73;1.35;;;;;;;23.07;100.00;97051.47;5082964;28;20060;-53
2022/07/12 06:41:44;;;;;;;2.08;1.40;;;;;;;22.91;100.00;97045.44;5079206;28;20064;-48
2022/07/12 06:44:12;;;;;;;1.40;1.30;;;;;;;23.04;100.00;97043.81;5073182;28;20091;-53
2022/07/12 06:46:41;;;;;;;1.80;1.45;;;;;;;23.26;100.00;97039.00;5078164;28;20076;-50
2022/07/12 06:49:16;;;;;;;1.75;1.40;;;;;;;23.11;100.00;97042.75;5078865;28;20087;-53
2022/07/12 06:51:44;;;;;;;2.35;1.33;;;;;;;22.84;100.00;97041.09;5083636;28;20680;-45
2022/07/12 06:54:13;;;;;;;1.30;1.02;;;;;;;23.01;100.00;97041.53;5076540;28;20082;-46
2022/07/12 06:56:42;;;;;;;1.17;1.08;;;;;;;23.14;100.00;97033.44;5077312;28;20088;-51
2022/07/12 06:59:11;;;;;;;3.53;1.23;;;;;;;23.20;100.00;97038.81;5073948;28;20532;-53
2022/07/12 07:01:43;;;;;;;1.60;0.80;;;;;;;22.81;100.00;97036.13;5079923;28;20518;-47
2022/07/12 07:04:12;;;;;;;1.13;1.02;;;;;;;22.92;100.00;97036.38;5081190;28;20481;-47
2022/07/12 07:06:40;;;;;;;1.25;1.10;;;;;;;23.06;100.00;97037.19;5076755;28;20072;-46
2022/07/12 07:09:08;;;;;;;1.67;1.20;;;;;;;23.31;100.00;97037.34;5073759;28;20069;-45
2022/07/12 07:11:37;;;;;;;1.23;1.10;;;;;;;23.18;100.00;97037.34;5073015;28;20096;-44
2022/07/12 07:14:05;;;;;;;0.93;0.85;;;;;;;23.45;100.00;97040.81;5084045;28;20475;-46
2022/07/12 07:16:35;;;;;;;1.20;0.95;;;;;;;23.38;100.00;97037.31;5085972;28;20079;-44
2022/07/12 07:19:05;;;;;;;2.80;0.70;;;;;;;23.82;100.00;97041.13;5088585;28;20076;-47
2022/07/12 07:21:33;;;;;;;1.55;0.90;;;;;;;23.75;100.00;97040.34;5080608;28;20114;-44
2022/07/12 07:24:02;;;;;;;1.20;0.70;;;;;;;23.76;100.00;97042.81;5080470;28;20078;-47
2022/07/12 07:26:32;;;;;;;0.85;0.80;;;;;;;23.18;100.00;97046.25;5083073;28;20080;-46
2022/07/12 07:31:48;;;;;;;1.70;0.70;;;;;;;23.48;100.00;97045.78;5079973;28;20523;-44
2022/07/12 07:34:16;;;;;;;0.60;0.60;;;;;;;23.59;100.00;97050.50;5076876;28;20076;-48
2022/07/12 07:36:45;;;;;;;0.90;0.40;;;;;;;23.73;100.00;97053.19;5078727;28;20103;-46
2022/07/12 07:39:13;;;;;;;0.80;0.50;;;;;;;24.10;100.00;97055.06;5086350;28;20471;-45
2022/07/12 07:41:48;;;;;;;0.40;0.40;;;;;;;23.80;100.00;97054.78;5079901;28;20087;-46
2022/07/12 07:44:16;;;;;;;0.55;0.40;;;;;;;23.58;100.00;97051.53;5072835;28;20068;-55
2022/07/12 07:46:45;;;;;;;0.40;0.40;;;;;;;23.41;100.00;97059.25;5079554;28;20479;-44
2022/07/12 07:49:15;;;;;;;1.20;0.50;;;;;;;23.67;100.00;97055.69;5080141;28;20083;-45
2022/07/12 07:51:43;;;;;;;0.63;0.50;;;;;;;23.48;100.00;97055.72;5079599;28;20060;-51
2022/07/12 07:54:29;;;;;;;0.57;0.57;;;;;;;23.43;100.00;97062.56;5080850;28;20066;-48
2022/07/12 07:56:57;;;;;;;0.47;0.47;;;;;;;23.27;100.00;97049.56;5076950;28;20083;-46
2022/07/12 07:59:30;;;;;;;0.73;0.60;;;;;;;23.39;100.00;97055.94;5080489;28;20238;-47
2022/07/12 08:01:58;;;;;;;1.13;0.57;;;;;;;23.26;100.00;97055.13;5074710;28;20079;-50
2022/07/12 08:04:28;;;;;;;0.60;0.50;;;;;;;23.12;100.00;97057.03;5076191;28;20068;-53
2022/07/12 08:06:58;;;;;;;0.60;0.50;;;;;;;23.42;100.00;97058.22;5075788;28;20044;-44
2022/07/12 08:09:26;;;;;;;0.63;0.50;;;;;;;23.50;100.00;97061.72;5078297;28;20117;-46
2022/07/12 08:11:54;;;;;;;1.05;0.50;;;;;;;22.94;100.00;97063.06;5073983;28;20511;-48
2022/07/12 08:14:23;;;;;;;0.52;0.52;;;;;;;23.12;100.00;97057.03;5081685;28;20076;-51
2022/07/12 08:16:51;;;;;;;0.52;0.52;;;;;;;22.73;100.00;97051.44;5076969;28;20076;-54
2022/07/12 08:19:20;;;;;;;0.98;0.68;;;;;;;23.05;100.00;97053.53;5087859;28;20080;-50
2022/07/12 08:21:50;;;;;;;0.55;0.55;;;;;;;23.37;100.00;97060.72;5086949;28;20440;-48
2022/07/12 08:24:18;;;;;;;1.55;0.80;;;;;;;23.75;100.00;97064.56;5083169;28;20067;-46
2022/07/12 08:26:48;;;;;;;0.70;0.60;;;;;;;23.59;100.00;97047.81;5085513;28;20078;-44
2022/07/12 08:29:16;;;;;;;2.67;0.60;;;;;;;24.13;100.00;97051.13;5082904;28;20075;-51
2022/07/12 08:31:45;;;;;;;1.13;0.63;;;;;;;24.01;100.00;97055.53;5080526;28;20110;-46
2022/07/12 08:34:31;;;;;;;0.80;0.45;;;;;;;24.17;100.00;97060.44;5081008;28;20067;-47
2022/07/12 08:37:00;;;;;;;1.52;0.80;;;;;;;24.38;100.00;97060.09;5087328;28;20068;-45
2022/07/12 08:39:29;;;;;;;1.17;0.50;;;;;;;24.11;100.00;97053.19;5082082;28;20087;-46
2022/07/12 08:41:57;;;;;;;0.80;0.70;;;;;;;24.10;100.00;97065.03;5078098;28;20084;-51
2022/07/12 08:44:25;;;;;;;0.82;0.70;;;;;;;24.44;100.00;97068.41;5077453;28;20076;-43
2022/07/12 08:46:54;;;;;;;1.50;0.52;;;;;;;24.00;100.00;97059.28;5082579;28;20059;-44
2022/07/12 08:49:22;;;;;;;1.08;0.70;;;;;;;24.10;100.00;97067.72;5078394;28;20090;-50
2022/07/12 08:51:51;;;;;;;0.88;0.68;;;;;;;24.09;100.00;97069.59;5084461;28;20086;-49
2022/07/12 08:54:20;;;;;;;1.23;0.63;;;;;;;24.43;100.00;97067.53;5083980;28;20725;-53
2022/07/12 08:56:49;;;;;;;2.45;0.73;;;;;;;24.45;93.16;97068.16;5080639;28;20469;-46
2022/07/12 08:59:18;;;;;;;0.60;0.60;;;;;;;24.57;82.71;97073.66;5086953;28;20152;-51
2022/07/12 09:01:49;;;;;;;1.30;0.50;;;;;;;24.74;97.18;97063.19;5080690;28;20514;-51
2022/07/12 09:04:19;;;;;;;0.40;0.40;;;;;;;24.89;97.89;97055.59;5083134;28;20087;-52
2022/07/12 09:06:48;;;;;;;0.68;0.40;;;;;;;25.20;93.43;97064.69;5076305;28;20094;-52
2022/07/12 09:09:29;;;;;;;3.57;0.50;;;;;;;24.57;81.64;97070.97;5083893;28;20478;-51
2022/07/12 09:11:58;;;;;;;0.73;0.60;;;;;;;24.41;87.67;97064.25;5084226;28;20075;-47
2022/07/12 09:14:26;;;;;;;0.90;0.60;;;;;;;24.87;78.28;97061.19;5085407;28;20071;-48
2022/07/12 09:17:03;;;;;;;3.00;0.57;;;;;;;25.26;73.26;97058.41;5082448;28;20455;-49
2022/07/12 09:19:31;;;;;;;0.50;0.50;;;;;;;24.94;63.57;97057.63;5077407;28;20094;-46
2022/07/12 09:22:00;;;;;;;1.30;0.60;;;;;;;25.16;69.97;97050.81;5086674;28;20079;-45
2022/07/12 09:24:30;;;;;;;1.27;0.70;;;;;;;24.88;74.51;97059.34;5078274;28;20041;-52
2022/07/12 09:27:00;;;;;;;;;;;;;;;25.10;65.15;97057.06;5082627;28;20056;-47
2022/07/12 09:29:29;;;;;;;1.05;0.52;;;;;;;25.13;68.03;97058.53;5080558;28;20341;-46
2022/07/12 09:37:30;;;;;;;1.15;0.60;;;;;;;25.38;64.31;97055.78;5078434;28;20080;-46
2022/07/12 09:39:59;;;;;;;1.42;0.55;;;;;;;25.61;56.21;97060.53;5083498;28;20071;-50
2022/07/12 09:42:28;;;;;;;0.65;0.60;;;;;;;25.56;58.89;97053.91;5080040;28;20071;-51
2022/07/12 09:44:58;;;;;;;0.82;0.60;;;;;;;26.18;55.94;97055.66;5080534;28;20434;-47
2022/07/12 09:47:26;;;;;;;0.82;0.70;;;;;;;25.95;74.34;97053.69;5084617;28;20064;-45
2022/07/12 09:49:54;;;;;;;0.85;0.70;;;;;;;25.52;68.28;97058.09;5082427;28;20060;-50
2022/07/12 09:52:24;;;;;;;0.70;0.60;;;;;;;25.92;58.34;97059.56;5083522;28;20107;-45
2022/07/12 09:54:54;;;;;;;0.70;0.70;;;;;;;26.08;52.24;97067.00;5080103;28;20092;-53
2022/07/12 09:57:27;;;;;;;0.95;0.68;;;;;;;25.85;57.45;97059.63;5079501;28;20080;-47
2022/07/12 09:59:57;;;;;;;2.00;0.73;;;;;;;25.78;54.69;97066.97;5084009;28;20122;-48
2022/07/12 10:02:26;;;;;;;0.60;0.60;;;;;;;25.99;58.98;97071.09;5079920;28;20561;-44
2022/07/12 10:04:55;;;;;;;0.73;0.65;;;;;;;26.70;57.60;97062.22;5076638;28;20076;-47
2022/07/12 10:07:23;;;;;;;0.57;0.57;;;;;;;26.98;55.36;97063.44;5078494;28;20067;-48
2022/07/12 10:09:53;;;;;;;0.50;0.50;;;;;;;27.31;45.87;97068.28;5077733;28;20087;-46
2022/07/12 10:12:24;;;;;;;1.10;0.70;;;;;;;27.85;51.00;97065.41;5079889;28;20114;-48
2022/07/12 10:14:58;;;;;;;0.50;0.50;;;;;;;26.93;47.26;97072.22;5077096;28;20076;-50
2022/07/12 10:17:27;;;;;;;0.60;0.60;;;;;;;26.52;52.01;97082.03;5084057;28;20072;-48
2022/07/12 10:20:18;;;;;;;2.13;0.90;;;;;;;26.94;47.85;97078.47;5084978;28;20082;-50
2022/07/12 10:22:47;;;;;;;1.15;0.60;;;;;;;27.59;47.44;97069.44;5083745;28;20090;-45
2022/07/12 10:25:31;;;;;;;1.10;0.80;;;;;;;27.13;54.08;97074.66;5081428;28;20549;-46
2022/07/12 10:28:02;;;;;;;1.70;0.70;;;;;;;27.34;47.55;97070.50;5083186;28;20068;-46
2022/07/12 10:30:31;;;;;;;0.90;0.80;;;;;;;27.10;50.16;97069.66;5081264;28;20485;-48
2022/07/12 10:33:00;;;;;;;0.80;0.80;;;;;;;27.52;50.75;97071.44;5079662;28;20079;-50
2022/07/12 10:35:30;;;;;;;0.98;0.88;;;;;;;27.79;47.83;97066.38;5079424;28;20084;-52
2022/07/12 10:38:14;;;;;;;;;;;;;;;27.83;44.54;97062.09;5074221;28;20068;-52
2022/07/12 10:40:44;;;;;;;0.82;0.68;;;;;;;27.52;49.15;97060.59;5084138;28;19971;-53
2022/07/12 10:43:21;;;;;;;;;;;;;;;26.63;51.06;97074.19;5085127;28;20071;-46
2022/07/12 10:45:50;;;;;;;0.90;0.88;;;;;;;27.03;48.74;97071.66;5078402;28;20292;-52
2022/07/12 10:48:23;;;;;;;1.27;0.70;;;;;;;27.38;47.35;97068.97;5081873;28;20134;-51
2022/07/12 10:50:56;;;;;;;0.88;0.63;;;;;;;27.86;46.38;97065.16;5079996;28;20079;-53
2022/07/12 10:53:26;;;;;;;0.60;0.60;;;;;;;28.53;44.44;97069.19;5078210;28;20067;-50
2022/07/12 10:56:10;;;;;;;1.10;0.70;;;;;;;28.31;46.74;97075.25;5075572;28;20102;-52
2022/07/12 10:58:42;;;;;;;1.02;0.80;;;;;;;28.02;50.22;97066.31;5079471;28;20071;-46
2022/07/12 11:01:12;;;;;;;1.17;0.80;;;;;;;28.50;46.19;97065.06;5074840;28;20067;-47
2022/07/12 11:03:42;;;;;;;1.55;0.85;;;;;;;27.83;47.18;97056.69;5077909;28;20470;-54
2022/07/12 11:06:12;;;;;;;1.13;0.90;;;;;;;28.36;46.09;97060.97;5080543;28;20068;-48
2022/07/12 11:08:52;;;;;;;2.22;0.90;;;;;;;27.46;47.06;97062.41;5076720;28;20083;-48
2022/07/12 11:11:21;;;;;;;1.52;0.90;;;;;;;27.07;48.11;97069.31;5078321;28;20080;-45
2022/07/12 11:13:51;;;;;;;1.13;0.90;;;;;;;26.99;48.02;97062.38;5076272;28;20072;-51
2022/07/12 11:16:19;;;;;;;;;;;;;;;26.84;47.04;97070.94;5083026;28;20534;-47
2022/07/12 11:18:49;;;;;;;1.35;1.05;;;;;;;26.75;48.01;97070.44;5077366;28;20347;-46
2022/07/12 11:21:18;;;;;;;1.23;0.80;;;;;;;27.72;47.27;97057.50;5081634;28;20102;-53
2022/07/12 11:23:46;;;;;;;1.10;0.73;;;;;;;27.97;44.84;97060.75;5078635;28;20087;-50
2022/07/12 11:26:15;;;;;;;1.70;0.82;;;;;;;28.72;44.38;97058.91;5083479;28;20063;-45
2022/07/12 11:28:47;;;;;;;2.25;0.95;;;;;;;28.14;48.41;97064.34;5075524;28;20421;-46
2022/07/12 11:31:18;;;;;;;1.13;0.85;;;;;;;28.76;46.22;97050.03;5080122;28;20110;-46
2022/07/12 11:33:48;;;;;;;1.23;0.85;;;;;;;27.92;49.23;97058.78;5077599;28;20094;-47
2022/07/12 11:36:16;;;;;;;;;;;;;;;28.25;45.33;97061.84;5070121;28;20530;-51
2022/07/12 11:38:46;;;;;;;0.85;0.77;;;;;;;28.35;47.14;97054.72;5077070;28;19963;-44
2022/07/12 11:41:15;;;;;;;1.02;0.90;;;;;;;28.00;46.00;97051.31;5076944;28;20071;-51
2022/07/12 11:43:44;;;;;;;2.15;0.80;;;;;;;28.46;43.27;97052.22;5082163;28;20090;-44
2022/07/12 11:46:13;;;;;;;1.33;0.90;;;;;;;28.88;42.40;97051.88;5083694;28;20075;-46
2022/07/12 11:48:43;;;;;;;1.00;0.90;;;;;;;28.14;46.71;97053.50;5090742;28;20084;-46
2022/07/12 11:51:12;;;;;;;2.22;0.90;;;;;;;28.65;41.02;97050.94;5092280;28;20082;-44